Time;durP1;ratioP1;P1;durP2;ratioP2;P2;SDS_P1;SDS_P2;PMS_P1;PMS_P2;Temp;Humidity;BMP_temperature;BMP_pressure;BME280_temperature;BME280_humidity;BME280_pressure;Samples;Min_cycle;Max_cycle;Signal;HPM_P1;HPM_P2
2022/03/08 00:00:44;;;;;;;10.57;6.03;;;1.80;99.90;;;;;;5016669;28;20030;-46
2022/03/08 00:03:09;;;;;;;13.10;6.68;;;1.70;99.90;;;;;;5015602;28;20117;-45
2022/03/08 00:05:35;;;;;;;10.25;5.05;;;1.60;99.90;;;;;;5016518;28;20022;-47
2022/03/08 00:08:01;;;;;;;8.68;4.53;;;1.50;99.90;;;;;;5016820;28;20393;-46
2022/03/08 00:10:27;;;;;;;8.20;4.95;;;1.40;99.90;;;;;;5016422;28;20029;-46
2022/03/08 00:12:53;;;;;;;12.55;6.55;;;1.30;99.90;;;;;;5015749;28;20030;-46
2022/03/08 00:15:24;;;;;;;11.75;5.95;;;1.20;99.90;;;;;;5016597;28;20033;-46
2022/03/08 00:17:51;;;;;;;11.73;5.97;;;1.10;99.90;;;;;;5016928;28;20026;-46
2022/03/08 00:20:17;;;;;;;17.10;7.22;;;1.00;99.90;;;;;;5015116;28;20080;-46
2022/03/08 00:22:43;;;;;;;13.23;6.13;;;1.00;99.90;;;;;;5016268;28;20105;-45
2022/03/08 00:25:11;;;;;;;12.63;6.68;;;1.00;99.90;;;;;;5014964;28;20030;-47
2022/03/08 00:27:37;;;;;;;12.70;6.55;;;1.00;99.90;;;;;;5014972;28;20045;-45
2022/03/08 00:30:05;;;;;;;16.42;7.30;;;1.00;99.90;;;;;;5016232;28;20049;-46
2022/03/08 00:32:31;;;;;;;10.65;6.20;;;1.00;99.90;;;;;;5015149;28;20038;-47
2022/03/08 00:34:56;;;;;;;18.20;7.70;;;1.10;99.90;;;;;;5016033;28;20032;-45
2022/03/08 00:37:22;;;;;;;13.68;6.35;;;1.10;99.90;;;;;;5014706;28;20030;-46
2022/03/08 00:39:48;;;;;;;10.68;6.32;;;1.20;99.90;;;;;;5014750;28;20026;-46
2022/03/08 00:42:13;;;;;;;13.52;6.32;;;1.20;99.90;;;;;;5015828;28;20028;-46
2022/03/08 00:44:46;;;;;;;13.02;6.57;;;1.30;99.90;;;;;;5015913;28;20018;-45
2022/03/08 00:47:13;;;;;;;13.02;6.28;;;1.30;99.90;;;;;;5015137;28;20061;-49
2022/03/08 00:49:39;;;;;;;13.75;5.72;;;1.00;99.90;;;;;;5016092;28;20447;-46
2022/03/08 00:52:06;;;;;;;9.80;5.97;;;0.90;99.90;;;;;;5015611;28;20018;-47
2022/03/08 00:54:32;;;;;;;11.25;5.80;;;0.80;99.90;;;;;;5015755;28;20036;-47
2022/03/08 00:56:57;;;;;;;15.32;6.57;;;0.70;99.90;;;;;;5015538;28;20105;-46
2022/03/08 00:59:23;;;;;;;13.73;7.38;;;0.60;99.90;;;;;;5014133;28;20022;-46
2022/03/08 01:01:49;;;;;;;11.52;5.82;;;0.50;99.90;;;;;;5014724;28;20030;-51
2022/03/08 01:04:15;;;;;;;12.25;5.55;;;0.50;99.90;;;;;;5015050;28;20041;-49
2022/03/08 01:06:41;;;;;;;11.75;6.72;;;0.40;99.90;;;;;;5014114;28;20402;-47
2022/03/08 01:09:07;;;;;;;9.07;5.00;;;0.30;99.90;;;;;;5015739;28;20021;-50
2022/03/08 01:11:32;;;;;;;9.00;4.95;;;0.20;99.90;;;;;;5015373;28;20029;-46
2022/03/08 01:13:58;;;;;;;9.48;4.85;;;0.30;99.90;;;;;;5014113;28;20026;-48
2022/03/08 01:16:24;;;;;;;10.57;5.78;;;0.30;99.90;;;;;;5014295;28;20026;-52
2022/03/08 01:18:51;;;;;;;11.35;5.20;;;0.30;99.90;;;;;;5014328;28;20117;-46
2022/03/08 01:21:17;;;;;;;10.68;5.68;;;0.30;99.90;;;;;;5015320;28;20025;-46
2022/03/08 01:23:43;;;;;;;11.57;5.75;;;0.10;99.90;;;;;;5013856;28;20037;-48
2022/03/08 01:26:09;;;;;;;10.27;5.75;;;0.00;99.90;;;;;;5013820;28;20108;-52
2022/03/08 01:28:34;;;;;;;9.55;5.68;;;0.00;99.90;;;;;;5015098;28;20030;-48
2022/03/08 01:31:01;;;;;;;11.63;6.25;;;-0.10;99.90;;;;;;5014944;28;20022;-51
2022/03/08 01:33:27;;;;;;;12.43;5.45;;;-0.10;99.90;;;;;;5015757;28;20037;-49
2022/03/08 01:35:52;;;;;;;9.20;4.97;;;0.00;99.90;;;;;;5013634;28;20080;-50
2022/03/08 01:38:18;;;;;;;12.02;5.53;;;0.10;99.90;;;;;;5013633;28;20026;-49
2022/03/08 01:40:44;;;;;;;11.63;5.65;;;0.10;99.90;;;;;;5013572;28;20029;-50
2022/03/08 01:43:10;;;;;;;11.55;6.03;;;0.10;99.90;;;;;;5014103;28;20026;-46
2022/03/08 01:45:35;;;;;;;17.08;7.32;;;0.00;99.90;;;;;;5013451;28;20022;-46
2022/03/08 01:48:01;;;;;;;14.52;7.18;;;0.00;99.90;;;;;;5013724;28;20113;-46
2022/03/08 01:50:27;;;;;;;16.25;6.60;;;0.00;99.90;;;;;;5013579;28;20022;-46
2022/03/08 01:52:54;;;;;;;10.02;5.88;;;-0.10;99.90;;;;;;5014490;28;20056;-46
2022/03/08 01:55:19;;;;;;;11.00;5.43;;;0.00;99.90;;;;;;5014496;28;20366;-46
2022/03/08 01:57:47;;;;;;;14.02;6.13;;;-0.10;99.90;;;;;;5014452;28;20049;-46
2022/03/08 02:00:16;;;;;;;22.60;12.45;;;-0.10;99.90;;;;;;5014523;28;20026;-49
2022/03/08 02:02:42;;;;;;;16.30;8.88;;;-0.10;99.90;;;;;;5013148;28;20542;-51
2022/03/08 02:05:09;;;;;;;14.52;6.38;;;-0.10;99.90;;;;;;5014419;28;20025;-49
2022/03/08 02:07:35;;;;;;;12.80;6.00;;;-0.10;99.90;;;;;;5013864;28;20044;-48
2022/03/08 02:10:01;;;;;;;8.98;5.38;;;-0.20;99.90;;;;;;5013068;28;20548;-47
2022/03/08 02:12:26;;;;;;;9.93;5.32;;;-0.20;99.90;;;;;;5012922;28;20029;-48
2022/03/08 02:14:52;;;;;;;8.90;5.35;;;-0.30;99.90;;;;;;5013710;28;20014;-47
2022/03/08 02:17:18;;;;;;;8.43;5.18;;;-0.30;99.90;;;;;;5012900;28;20105;-51
2022/03/08 02:19:43;;;;;;;13.05;5.55;;;-0.30;99.90;;;;;;5014400;28;20030;-50
2022/03/08 02:22:09;;;;;;;13.45;5.88;;;-0.50;99.90;;;;;;5013171;28;20025;-50
2022/03/08 02:24:34;;;;;;;22.10;9.48;;;-0.50;99.90;;;;;;5014240;28;20130;-49
2022/03/08 02:27:00;;;;;;;14.45;6.80;;;-0.50;99.90;;;;;;5012969;28;20018;-46
2022/03/08 02:29:27;;;;;;;16.48;7.65;;;-0.50;99.90;;;;;;5014125;28;20022;-46
2022/03/08 02:31:54;;;;;;;13.93;6.70;;;-0.40;99.90;;;;;;5013882;28;20546;-46
2022/03/08 02:34:20;;;;;;;13.93;6.47;;;-0.40;99.90;;;;;;5012809;28;20022;-49
2022/03/08 02:37:08;;;;;;;16.00;6.43;;;-0.30;99.90;;;;;;5013033;28;20032;-50
2022/03/08 02:39:35;;;;;;;11.18;5.75;;;-0.30;99.90;;;;;;5013928;28;20100;-49
2022/03/08 02:42:01;;;;;;;14.07;5.93;;;-0.10;99.90;;;;;;5013846;28;20141;-51
2022/03/08 02:44:27;;;;;;;12.13;6.22;;;-0.40;99.90;;;;;;5012828;28;20026;-51
2022/03/08 02:46:54;;;;;;;11.20;5.75;;;-0.50;99.90;;;;;;5013631;28;20017;-46
2022/03/08 02:49:19;;;;;;;10.05;5.97;;;-0.60;99.90;;;;;;5012801;28;20022;-48
2022/03/08 02:51:46;;;;;;;12.13;5.97;;;-0.50;99.90;;;;;;5013769;28;20061;-47
2022/03/08 02:54:11;;;;;;;14.65;6.78;;;-0.60;99.90;;;;;;5012428;28;20029;-50
2022/03/08 02:56:37;;;;;;;13.23;6.50;;;-0.60;99.90;;;;;;5013525;28;20225;-52
2022/03/08 02:59:03;;;;;;;11.00;6.03;;;-0.70;99.90;;;;;;5012352;28;20025;-47
2022/03/08 03:01:29;;;;;;;13.18;6.25;;;-0.70;99.90;;;;;;5012447;28;20029;-48
2022/03/08 03:03:55;;;;;;;11.48;6.22;;;-0.60;99.90;;;;;;5012591;28;20022;-46
2022/03/08 03:06:20;;;;;;;14.13;6.82;;;-0.70;99.90;;;;;;5012710;28;20544;-46
2022/03/08 03:08:46;;;;;;;16.25;6.13;;;-0.80;99.90;;;;;;5012627;28;20033;-52
2022/03/08 03:11:12;;;;;;;10.70;6.13;;;-0.90;99.90;;;;;;5013439;28;20100;-49
2022/03/08 03:13:37;;;;;;;12.48;6.40;;;-0.90;99.90;;;;;;5012214;28;20026;-50
2022/03/08 03:16:03;;;;;;;14.10;7.03;;;-1.00;99.90;;;;;;5013820;28;20026;-51
2022/03/08 03:18:28;;;;;;;13.55;6.75;;;-1.10;99.90;;;;;;5013436;28;20026;-47
2022/03/08 03:20:54;;;;;;;12.90;6.60;;;-1.00;99.90;;;;;;5012116;28;20068;-49
2022/03/08 03:23:20;;;;;;;15.85;6.75;;;-1.00;99.90;;;;;;5013552;28;20032;-46
2022/03/08 03:25:45;;;;;;;15.27;6.15;;;-1.00;99.90;;;;;;5017822;28;20029;-48
2022/03/08 03:28:11;;;;;;;14.52;6.45;;;-0.90;99.90;;;;;;5016083;28;20030;-46
2022/03/08 03:30:36;;;;;;;11.00;5.93;;;-0.90;99.90;;;;;;5017505;28;20033;-51
2022/03/08 03:33:03;;;;;;;18.13;6.40;;;-0.90;99.90;;;;;;5016762;28;20038;-46
2022/03/08 03:35:29;;;;;;;11.10;5.70;;;-0.90;99.90;;;;;;5017223;28;20548;-49
2022/03/08 03:37:55;;;;;;;10.00;5.85;;;-1.00;99.90;;;;;;5017209;28;20022;-47
2022/03/08 03:40:21;;;;;;;11.77;6.00;;;-1.00;99.90;;;;;;5017134;28;20481;-51
2022/03/08 03:42:46;;;;;;;13.38;5.85;;;-1.00;99.90;;;;;;5016707;28;20123;-49
2022/03/08 03:45:13;;;;;;;13.57;5.82;;;-1.10;99.90;;;;;;5016941;28;20028;-47
2022/03/08 03:47:39;;;;;;;12.27;6.50;;;-1.10;99.90;;;;;;5017062;28;20031;-52
2022/03/08 03:50:06;;;;;;;13.60;6.75;;;-1.10;99.90;;;;;;5015734;28;20488;-49
2022/03/08 03:52:32;;;;;;;10.25;5.93;;;-1.10;99.90;;;;;;5016874;28;20076;-47
2022/03/08 03:54:58;;;;;;;13.10;6.35;;;-1.30;99.90;;;;;;5015892;28;20022;-47
2022/03/08 03:57:23;;;;;;;13.20;6.03;;;-1.30;99.90;;;;;;5015491;28;20022;-52
2022/03/08 03:59:49;;;;;;;11.32;5.38;;;-1.30;99.90;;;;;;5015534;28;20018;-50
2022/03/08 04:02:15;;;;;;;12.70;5.88;;;-1.20;99.90;;;;;;5015318;28;20022;-51
2022/03/08 04:04:40;;;;;;;10.68;5.85;;;-1.30;99.90;;;;;;5015312;28;20022;-50
2022/03/08 04:07:06;;;;;;;12.20;6.20;;;-1.30;99.90;;;;;;5016705;28;20073;-49
2022/03/08 04:09:32;;;;;;;13.05;6.05;;;-1.20;99.90;;;;;;5016553;28;20029;-49
2022/03/08 04:11:57;;;;;;;11.40;5.57;;;-1.20;99.90;;;;;;5016793;28;20024;-52
2022/03/08 04:14:23;;;;;;;15.40;6.00;;;-1.20;99.90;;;;;;5016699;28;20048;-49
2022/03/08 04:16:49;;;;;;;11.50;5.80;;;-1.10;99.90;;;;;;5015511;28;20026;-51
2022/03/08 04:19:15;;;;;;;13.25;6.10;;;-1.10;99.90;;;;;;5016426;28;20389;-49
2022/03/08 04:21:40;;;;;;;13.68;5.72;;;-1.20;99.90;;;;;;5015165;28;20057;-47
2022/03/08 04:24:06;;;;;;;10.80;5.93;;;-1.20;99.90;;;;;;5014982;28;20060;-50
2022/03/08 04:26:32;;;;;;;12.35;5.65;;;-1.30;99.90;;;;;;5015060;28;20045;-47
2022/03/08 04:28:57;;;;;;;12.35;5.95;;;-1.20;99.90;;;;;;5015372;28;20570;-49
2022/03/08 04:31:23;;;;;;;13.77;6.13;;;-1.20;99.90;;;;;;5015989;28;20069;-51
2022/03/08 04:33:49;;;;;;;12.07;5.70;;;-1.30;99.90;;;;;;5016649;28;20029;-48
2022/03/08 04:36:14;;;;;;;14.70;6.72;;;-1.20;99.90;;;;;;5015682;28;20022;-47
2022/03/08 04:38:40;;;;;;;14.90;6.00;;;-1.20;99.90;;;;;;5016342;28;20053;-47
2022/03/08 04:41:06;;;;;;;12.95;5.90;;;-1.20;99.90;;;;;;5015974;28;20041;-46
2022/03/08 04:43:32;;;;;;;14.05;6.40;;;-1.20;99.90;;;;;;5015915;28;20164;-46
2022/03/08 04:45:58;;;;;;;14.27;6.70;;;-1.20;99.90;;;;;;5015471;28;20033;-45
2022/03/08 04:48:24;;;;;;;13.15;6.25;;;-1.30;99.90;;;;;;5015917;28;20097;-50
2022/03/08 04:50:49;;;;;;;11.30;6.40;;;-1.20;99.90;;;;;;5015873;28;20101;-49
2022/03/08 04:53:15;;;;;;;12.48;6.22;;;-1.30;99.90;;;;;;5015831;28;20084;-48
2022/03/08 04:55:41;;;;;;;12.18;6.22;;;-1.30;99.90;;;;;;5014397;28;20030;-46
2022/03/08 04:58:06;;;;;;;14.40;6.38;;;-1.30;99.90;;;;;;5015721;28;20033;-49
2022/03/08 05:00:32;;;;;;;14.70;5.90;;;-1.30;99.90;;;;;;5014383;28;20032;-46
2022/03/08 05:02:58;;;;;;;14.35;6.15;;;-1.40;99.90;;;;;;5015498;28;20022;-46
2022/03/08 05:05:24;;;;;;;12.20;6.40;;;-1.50;99.90;;;;;;5014247;28;20018;-46
2022/03/08 05:07:50;;;;;;;15.32;7.50;;;-1.60;99.90;;;;;;5014248;28;20022;-46
2022/03/08 05:10:15;;;;;;;15.40;7.45;;;-1.60;99.90;;;;;;5014407;28;20026;-50
2022/03/08 05:12:42;;;;;;;14.95;5.88;;;-1.60;99.90;;;;;;5014186;28;20105;-50
2022/03/08 05:15:09;;;;;;;14.65;6.63;;;-1.50;99.90;;;;;;5015305;28;20018;-46
2022/03/08 05:17:35;;;;;;;11.77;5.85;;;-1.50;99.90;;;;;;5015310;28;20018;-46
2022/03/08 05:20:01;;;;;;;14.15;6.75;;;-1.50;99.90;;;;;;5015240;28;20033;-49
2022/03/08 05:22:26;;;;;;;13.43;5.43;;;-1.60;99.90;;;;;;5013881;28;20025;-48
2022/03/08 05:24:52;;;;;;;15.98;6.75;;;-1.50;99.90;;;;;;5015402;28;20022;-49
2022/03/08 05:27:18;;;;;;;12.50;5.93;;;-1.60;99.90;;;;;;5015308;28;20034;-46
2022/03/08 05:29:43;;;;;;;14.23;6.35;;;-1.70;99.90;;;;;;5015060;28;20025;-50
2022/03/08 05:32:09;;;;;;;19.45;7.07;;;-1.90;99.90;;;;;;5014912;28;20107;-47
2022/03/08 05:34:35;;;;;;;21.05;9.23;;;-1.90;99.90;;;;;;5014038;28;20026;-49
2022/03/08 05:37:01;;;;;;;35.72;12.77;;;-1.90;99.90;;;;;;5015087;28;20099;-51
2022/03/08 05:39:27;;;;;;;26.80;10.73;;;-2.10;99.90;;;;;;5013928;28;20034;-50
2022/03/08 05:41:52;;;;;;;28.25;9.38;;;-2.00;99.90;;;;;;5014850;28;20026;-49
2022/03/08 05:44:18;;;;;;;19.40;8.65;;;-1.80;99.90;;;;;;5014009;28;20026;-46
2022/03/08 05:46:44;;;;;;;14.15;6.65;;;-1.80;99.90;;;;;;5014044;28;20018;-49
2022/03/08 05:49:10;;;;;;;10.27;5.47;;;-1.70;99.90;;;;;;5013441;28;20032;-49
2022/03/08 05:51:35;;;;;;;11.25;5.53;;;-1.70;99.90;;;;;;5014020;28;20117;-50
2022/03/08 05:54:01;;;;;;;13.32;6.28;;;-1.80;99.90;;;;;;5014592;28;20029;-48
2022/03/08 05:56:27;;;;;;;16.30;5.82;;;-1.70;99.90;;;;;;5014601;28;20030;-48
2022/03/08 05:58:53;;;;;;;14.55;7.05;;;-1.70;99.90;;;;;;5014604;28;20080;-46
2022/03/08 06:01:19;;;;;;;18.08;6.70;;;-1.80;99.90;;;;;;5013223;28;20026;-48
2022/03/08 06:03:44;;;;;;;14.82;7.00;;;-1.80;99.90;;;;;;5014667;28;20156;-51
2022/03/08 06:06:11;;;;;;;10.40;6.35;;;-1.70;99.90;;;;;;5014634;28;20026;-50
2022/03/08 06:08:37;;;;;;;16.17;7.00;;;-1.60;99.90;;;;;;5014741;28;20112;-48
2022/03/08 06:11:02;;;;;;;12.80;6.28;;;-1.60;99.90;;;;;;5013376;28;20085;-46
2022/03/08 06:13:29;;;;;;;14.65;6.93;;;-1.50;99.90;;;;;;5014595;28;20041;-48
2022/03/08 06:15:55;;;;;;;15.00;7.28;;;-1.60;99.90;;;;;;5013021;28;20033;-49
2022/03/08 06:18:21;;;;;;;15.98;7.07;;;-1.50;99.90;;;;;;5013814;28;20032;-46
2022/03/08 06:20:46;;;;;;;12.73;6.90;;;-1.30;99.90;;;;;;5014194;28;20026;-46
2022/03/08 06:23:12;;;;;;;20.27;7.32;;;-0.80;99.90;;;;;;5012777;28;20032;-46
2022/03/08 06:25:38;;;;;;;16.45;6.55;;;0.00;99.90;;;;;;5012832;28;20094;-47
2022/03/08 06:28:04;;;;;;;8.35;4.93;;;0.90;99.90;;;;;;5014107;28;20109;-46
2022/03/08 06:30:30;;;;;;;15.30;6.57;;;1.50;99.90;;;;;;5012815;28;20021;-47
2022/03/08 06:32:55;;;;;;;11.75;6.15;;;2.10;99.90;;;;;;5013909;28;20125;-46
2022/03/08 06:35:21;;;;;;;18.30;6.55;;;2.40;99.90;;;;;;5012635;28;20026;-47
2022/03/08 06:37:47;;;;;;;10.45;5.97;;;3.20;99.90;;;;;;5013238;28;20033;-47
2022/03/08 06:40:12;;;;;;;15.20;7.05;;;3.70;99.90;;;;;;5013830;28;20030;-46
2022/03/08 06:42:38;;;;;;;16.55;8.23;;;3.50;99.90;;;;;;5012543;28;20076;-48
2022/03/08 06:45:06;;;;;;;12.38;6.72;;;3.70;99.90;;;;;;5013739;28;20026;-47
2022/03/08 06:47:32;;;;;;;13.05;5.88;;;4.70;99.90;;;;;;5013724;28;20021;-47
2022/03/08 06:49:57;;;;;;;12.80;7.28;;;5.60;99.90;;;;;;5012558;28;20021;-48
2022/03/08 06:52:23;;;;;;;13.38;6.93;;;6.10;99.90;;;;;;5012398;28;20026;-48
2022/03/08 06:54:49;;;;;;;11.90;7.10;;;6.80;99.90;;;;;;5012468;28;20116;-49
2022/03/08 06:57:14;;;;;;;12.30;6.32;;;7.70;99.90;;;;;;5012931;28;20026;-48
2022/03/08 06:59:40;;;;;;;11.75;7.25;;;8.20;99.90;;;;;;5013608;28;20030;-46
2022/03/08 07:02:05;;;;;;;14.48;7.97;;;8.40;99.80;;;;;;5013879;28;20175;-46
2022/03/08 07:04:31;;;;;;;14.77;7.55;;;8.00;99.10;;;;;;5013506;28;20109;-50
2022/03/08 07:06:57;;;;;;;18.05;9.27;;;8.10;99.30;;;;;;5013565;28;20029;-45
2022/03/08 07:09:23;;;;;;;18.42;10.25;;;8.20;99.20;;;;;;5012714;28;20026;-45
2022/03/08 07:11:49;;;;;;;15.18;8.80;;;8.30;97.60;;;;;;5013747;28;20026;-44
2022/03/08 07:14:15;;;;;;;15.57;7.30;;;8.70;98.70;;;;;;5012550;28;20032;-45
2022/03/08 07:16:50;;;;;;;10.98;7.45;;;9.60;97.30;;;;;;5013052;28;20034;-44
2022/03/08 07:19:16;;;;;;;13.88;7.25;;;10.30;97.70;;;;;;5013135;28;20022;-45
2022/03/08 07:21:45;;;;;;;12.10;8.23;;;11.40;96.80;;;;;;5013082;28;20030;-46
2022/03/08 07:24:11;;;;;;;10.65;7.07;;;11.60;91.30;;;;;;5013609;28;20034;-47
2022/03/08 07:26:36;;;;;;;11.55;8.00;;;12.50;91.90;;;;;;5013374;28;20052;-45
2022/03/08 07:29:02;;;;;;;11.43;7.18;;;12.40;88.90;;;;;;5013366;28;20026;-45
2022/03/08 07:31:28;;;;;;;9.75;7.05;;;13.00;85.40;;;;;;5013131;28;20042;-44
2022/03/08 07:33:54;;;;;;;12.65;7.93;;;13.50;84.70;;;;;;5012168;28;20026;-45
2022/03/08 07:36:20;;;;;;;9.88;8.07;;;13.40;79.70;;;;;;5013272;28;20037;-46
2022/03/08 07:38:45;;;;;;;12.25;7.63;;;13.90;81.10;;;;;;5012099;28;20022;-50
2022/03/08 07:41:11;;;;;;;10.85;7.93;;;14.10;78.50;;;;;;5013280;28;20029;-47
2022/03/08 07:43:37;;;;;;;9.68;7.22;;;14.60;75.90;;;;;;5011974;28;20026;-49
2022/03/08 07:46:04;;;;;;;12.10;7.82;;;14.70;74.80;;;;;;5012527;28;20071;-50
2022/03/08 07:48:29;;;;;;;10.55;7.70;;;14.90;74.70;;;;;;5013182;28;20025;-53
2022/03/08 07:50:55;;;;;;;11.82;8.02;;;15.10;73.90;;;;;;5013199;28;20022;-50
2022/03/08 07:53:21;;;;;;;14.27;9.32;;;15.40;76.60;;;;;;5012502;28;20091;-52
2022/03/08 07:55:47;;;;;;;15.68;8.75;;;15.90;70.60;;;;;;5011799;28;20068;-47
2022/03/08 07:58:14;;;;;;;9.38;7.60;;;15.90;70.00;;;;;;5011823;28;20030;-53
2022/03/08 08:00:41;;;;;;;12.52;8.15;;;16.50;72.10;;;;;;5011855;28;20022;-52
2022/03/08 08:03:07;;;;;;;10.68;8.35;;;16.80;68.30;;;;;;5013325;28;20172;-47
2022/03/08 08:05:36;;;;;;;17.67;11.13;;;17.50;66.50;;;;;;5012102;28;20022;-48
2022/03/08 08:08:06;;;;;;;8.75;7.20;;;16.90;65.60;;;;;;5012960;28;20500;-48
2022/03/08 08:10:32;;;;;;;8.98;7.30;;;17.10;66.60;;;;;;5013832;28;20057;-49
2022/03/08 08:12:59;;;;;;;10.05;7.97;;;18.00;65.10;;;;;;5015341;28;20026;-53
2022/03/08 08:18:46;;;;;;;13.77;7.50;;;18.40;63.60;;;;;;5016830;28;20044;-53
2022/03/08 08:21:12;;;;;;;9.85;8.13;;;19.20;63.40;;;;;;5016672;28;20022;-50
2022/03/08 08:23:38;;;;;;;11.25;8.02;;;19.60;60.80;;;;;;5014983;28;20499;-52
2022/03/08 08:26:03;;;;;;;11.50;8.40;;;19.60;60.90;;;;;;5015307;28;20018;-54
2022/03/08 08:28:29;;;;;;;11.75;8.30;;;20.20;59.60;;;;;;5015015;28;20030;-56
2022/03/08 08:30:55;;;;;;;10.48;7.13;;;19.90;60.30;;;;;;5016229;28;20024;-56
2022/03/08 08:33:20;;;;;;;13.63;9.18;;;20.90;59.90;;;;;;5016951;28;20428;-54
2022/03/08 08:35:46;;;;;;;10.30;8.65;;;21.30;57.90;;;;;;5014797;28;20084;-53
2022/03/08 08:38:12;;;;;;;11.45;9.98;;;21.70;56.30;;;;;;5015235;28;20022;-52
2022/03/08 08:40:38;;;;;;;12.48;8.95;;;21.00;55.50;;;;;;5016110;28;20080;-54
2022/03/08 08:43:05;;;;;;;15.60;9.38;;;21.20;58.00;;;;;;5016270;28;20085;-54
2022/03/08 08:45:31;;;;;;;11.60;8.32;;;21.70;57.30;;;;;;5015297;28;20025;-53
2022/03/08 08:47:57;;;;;;;8.82;7.93;;;22.30;56.20;;;;;;5014712;28;20025;-51
2022/03/08 08:50:23;;;;;;;9.48;7.47;;;22.10;55.60;;;;;;5016382;28;20068;-49
2022/03/08 08:52:49;;;;;;;15.68;7.72;;;22.60;55.70;;;;;;5014589;28;20022;-49
2022/03/08 08:55:15;;;;;;;9.88;8.65;;;22.30;53.90;;;;;;5015454;28;20018;-48
2022/03/08 08:57:41;;;;;;;12.27;8.45;;;21.30;55.10;;;;;;5015737;28;20033;-48
2022/03/08 09:00:08;;;;;;;10.95;8.70;;;20.90;54.80;;;;;;5014347;28;20022;-48
2022/03/08 09:02:35;;;;;;;10.48;7.80;;;19.10;54.80;;;;;;5014626;28;20028;-48
2022/03/08 09:05:01;;;;;;;9.93;7.57;;;18.40;56.20;;;;;;5014589;28;20018;-48
2022/03/08 09:07:26;;;;;;;11.90;7.38;;;18.10;56.40;;;;;;5015560;28;20037;-48
2022/03/08 09:09:52;;;;;;;9.00;6.93;;;16.70;57.70;;;;;;5014636;28;20022;-50
2022/03/08 09:12:17;;;;;;;10.38;7.35;;;16.40;59.70;;;;;;5014618;28;20033;-48
2022/03/08 09:14:43;;;;;;;10.68;7.93;;;16.40;59.00;;;;;;5015067;28;20030;-49
2022/03/08 09:17:09;;;;;;;9.00;6.90;;;17.00;59.10;;;;;;5014538;28;20108;-49
2022/03/08 09:19:35;;;;;;;9.20;6.80;;;17.00;58.50;;;;;;5014110;28;20018;-48
2022/03/08 09:22:01;;;;;;;10.68;7.35;;;16.40;59.20;;;;;;5012945;28;20084;-49
2022/03/08 09:24:26;;;;;;;9.95;6.93;;;16.70;58.60;;;;;;5014403;28;20030;-49
2022/03/08 09:26:52;;;;;;;9.95;6.80;;;16.30;59.20;;;;;;5013795;28;20026;-50
2022/03/08 09:29:18;;;;;;;11.88;6.93;;;15.50;60.00;;;;;;5014995;28;20030;-48
2022/03/08 09:31:44;;;;;;;9.32;6.50;;;15.00;61.30;;;;;;5015049;28;20101;-50
2022/03/08 09:34:11;;;;;;;12.85;7.22;;;14.80;61.70;;;;;;5015062;28;20022;-53
2022/03/08 09:36:37;;;;;;;17.83;8.70;;;15.20;62.10;;;;;;5014038;28;20117;-48
2022/03/08 09:39:05;;;;;;;14.43;7.47;;;15.40;63.50;;;;;;5015249;28;20503;-54
2022/03/08 09:41:30;;;;;;;8.77;6.45;;;15.30;61.60;;;;;;5014018;28;20032;-55
2022/03/08 09:43:57;;;;;;;7.32;5.55;;;15.30;61.50;;;;;;5013541;28;20121;-54
2022/03/08 09:46:22;;;;;;;14.73;5.93;;;15.40;60.80;;;;;;5013583;28;20037;-54
2022/03/08 09:48:49;;;;;;;12.82;7.55;;;14.80;60.80;;;;;;5013603;28;20021;-50
2022/03/08 09:51:16;;;;;;;13.82;7.68;;;14.20;62.90;;;;;;5014683;28;20029;-50
2022/03/08 09:53:44;;;;;;;10.98;6.18;;;14.50;63.70;;;;;;5014718;28;20033;-50
2022/03/08 09:56:10;;;;;;;12.90;6.22;;;15.10;62.50;;;;;;5013360;28;20037;-48
2022/03/08 09:58:39;;;;;;;11.32;6.45;;;14.40;63.00;;;;;;5013673;28;20089;-47
2022/03/08 10:01:05;;;;;;;11.73;6.57;;;14.90;62.80;;;;;;5013451;28;20026;-47
2022/03/08 10:03:38;;;;;;;12.60;6.30;;;14.40;62.40;;;;;;5013589;28;20049;-49
2022/03/08 10:06:05;;;;;;;14.32;6.90;;;13.90;62.70;;;;;;5013602;28;20072;-47
2022/03/08 10:08:30;;;;;;;12.20;7.55;;;14.40;64.30;;;;;;5013299;28;20072;-46
2022/03/08 10:11:00;;;;;;;8.55;5.55;;;14.70;64.00;;;;;;5013238;28;20022;-47
2022/03/08 10:13:40;;;;;;;8.30;4.95;;;15.10;61.00;;;;;;5013399;28;20026;-48
2022/03/08 10:16:16;;;;;;;6.97;4.70;;;14.40;61.20;;;;;;5014307;28;20021;-48
2022/03/08 10:18:45;;;;;;;9.63;5.35;;;13.80;62.30;;;;;;5014229;28;20037;-47
2022/03/08 10:21:33;;;;;;;9.55;5.45;;;12.60;62.90;;;;;;5014268;28;20036;-49
2022/03/08 10:30:42;;;;;;;7.55;4.70;;;11.00;67.00;;;;;;5014394;28;20029;-48
2022/03/08 10:33:08;;;;;;;11.18;4.75;;;10.90;69.10;;;;;;5013699;28;20026;-48
2022/03/08 10:35:39;;;;;;;10.15;5.40;;;10.70;68.60;;;;;;5013962;28;20026;-51
2022/03/08 10:38:08;;;;;;;13.57;4.97;;;10.30;69.00;;;;;;5012811;28;20022;-47
2022/03/08 10:40:35;;;;;;;10.35;5.22;;;9.90;68.80;;;;;;5012565;28;20304;-47
2022/03/08 10:43:15;;;;;;;9.20;4.97;;;9.80;70.00;;;;;;5013809;28;20026;-49
2022/03/08 10:45:49;;;;;;;7.43;4.47;;;9.70;70.40;;;;;;5013796;28;20022;-49
2022/03/08 10:48:18;;;;;;;9.30;4.88;;;9.50;71.40;;;;;;5012660;28;20468;-51
2022/03/08 10:50:46;;;;;;;11.02;4.70;;;9.40;70.70;;;;;;5012484;28;20026;-53
2022/03/08 10:53:13;;;;;;;8.65;4.70;;;9.30;72.50;;;;;;5012660;28;20022;-54
2022/03/08 10:55:46;;;;;;;13.85;5.75;;;9.10;72.70;;;;;;5013647;28;20076;-51
2022/03/08 10:58:14;;;;;;;10.55;5.97;;;8.80;74.20;;;;;;5013978;28;20040;-54
2022/03/08 11:00:43;;;;;;;11.13;5.53;;;9.00;74.90;;;;;;5013499;28;20432;-47
2022/03/08 11:03:17;;;;;;;9.68;5.10;;;8.90;73.70;;;;;;5012199;28;20033;-48
2022/03/08 11:05:42;;;;;;;9.18;4.70;;;8.90;73.40;;;;;;5012258;28;20030;-52
2022/03/08 11:08:09;;;;;;;12.75;5.43;;;8.70;73.80;;;;;;5013616;28;20080;-48
2022/03/08 11:10:35;;;;;;;15.68;4.65;;;8.70;74.00;;;;;;5013236;28;20121;-54
2022/03/08 11:13:02;;;;;;;10.00;4.32;;;8.60;73.80;;;;;;5013592;28;20030;-49
2022/03/08 11:15:31;;;;;;;9.43;5.43;;;8.60;74.30;;;;;;5013390;28;20067;-49
2022/03/08 11:17:58;;;;;;;8.48;5.38;;;8.70;74.30;;;;;;5012163;28;20030;-51
2022/03/08 11:20:25;;;;;;;11.48;4.82;;;8.70;75.30;;;;;;5013587;28;20030;-52
2022/03/08 11:22:54;;;;;;;10.98;5.20;;;8.50;74.80;;;;;;5012924;28;20026;-54
2022/03/08 11:25:21;;;;;;;7.45;4.63;;;8.50;74.80;;;;;;5013297;28;20014;-54
2022/03/08 11:27:48;;;;;;;8.65;4.70;;;8.60;75.90;;;;;;5012085;28;20030;-52
2022/03/08 11:30:18;;;;;;;10.55;5.25;;;8.90;75.50;;;;;;5012159;28;20029;-49
2022/03/08 11:33:18;;;;;;;10.38;5.07;;;8.80;76.00;;;;;;5013441;28;20034;-54
2022/03/08 11:35:56;;;;;;;8.60;4.90;;;8.50;75.00;;;;;;4970827;28;20030;-55
2022/03/08 11:38:22;;;;;;;11.70;5.75;;;8.50;75.60;;;;;;5013349;28;20017;-55
2022/03/08 11:40:49;;;;;;;11.82;5.68;;;8.50;75.50;;;;;;5013655;28;20029;-54
2022/03/08 11:43:14;;;;;;;9.40;5.10;;;8.60;75.60;;;;;;5013227;28;20022;-47
2022/03/08 11:45:40;;;;;;;10.43;5.70;;;8.50;75.10;;;;;;5015600;28;20022;-53
2022/03/08 11:48:09;;;;;;;9.13;5.13;;;8.50;74.60;;;;;;5017353;28;20030;-54
2022/03/08 11:50:40;;;;;;;13.35;5.70;;;8.50;75.00;;;;;;5017064;28;20384;-54
2022/03/08 11:53:06;;;;;;;9.13;5.80;;;8.60;75.10;;;;;;5015713;28;20129;-51
2022/03/08 11:55:47;;;;;;;16.17;6.72;;;8.70;75.20;;;;;;5015942;28;20121;-49
2022/03/08 11:58:18;;;;;;;7.17;4.43;;;8.60;74.80;;;;;;5015732;28;20518;-50
2022/03/08 12:00:56;;;;;;;11.30;5.03;;;8.60;73.80;;;;;;5015877;28;20033;-48
2022/03/08 12:03:28;;;;;;;10.02;5.05;;;8.70;74.60;;;;;;5015833;28;20065;-51
2022/03/08 12:06:09;;;;;;;12.10;4.85;;;8.70;74.10;;;;;;5016710;28;20026;-51
2022/03/08 12:08:38;;;;;;;13.60;5.38;;;8.80;73.90;;;;;;5015701;28;20109;-49
2022/03/08 12:11:07;;;;;;;9.90;4.50;;;8.80;72.20;;;;;;5016579;28;20041;-49
2022/03/08 12:13:39;;;;;;;9.27;4.93;;;8.80;71.50;;;;;;5015358;28;20481;-50
2022/03/08 12:16:10;;;;;;;;;;;8.60;70.90;;;;;;5016833;28;20100;-47
2022/03/08 12:18:48;;;;;;;7.30;4.80;;;8.60;71.00;;;;;;5015248;28;19996;-49
2022/03/08 12:21:17;;;;;;;6.65;4.45;;;8.80;72.40;;;;;;5015608;28;20048;-55
2022/03/08 12:23:53;;;;;;;10.70;5.10;;;8.60;70.90;;;;;;5016321;28;20026;-57
2022/03/08 12:26:39;;;;;;;8.88;4.40;;;8.60;72.90;;;;;;5015191;28;20117;-53
2022/03/08 12:29:46;;;;;;;9.68;5.28;;;8.60;71.30;;;;;;5015559;28;20026;-55
2022/03/08 12:32:42;;;;;;;8.98;4.53;;;8.70;72.00;;;;;;4939845;29;20035;-52
2022/03/08 12:35:28;;;;;;;9.05;4.78;;;8.80;71.50;;;;;;4955488;28;20083;-52
2022/03/08 12:38:05;;;;;;;9.93;4.85;;;8.80;70.70;;;;;;5005192;28;20088;-51
2022/03/08 12:40:36;;;;;;;11.02;5.00;;;8.80;70.80;;;;;;5016146;28;20050;-56
2022/03/08 12:43:08;;;;;;;12.57;4.78;;;8.80;71.70;;;;;;5014719;28;20470;-53
2022/03/08 12:45:36;;;;;;;8.40;4.28;;;8.90;72.00;;;;;;5014525;28;20094;-55
2022/03/08 12:48:05;;;;;;;9.07;5.05;;;8.90;70.50;;;;;;5015874;28;20021;-53
2022/03/08 12:50:34;;;;;;;13.43;5.15;;;9.00;70.80;;;;;;5015894;28;20026;-51
2022/03/08 12:53:08;;;;;;;11.80;4.50;;;8.90;69.90;;;;;;5016046;28;20038;-52